Time;durP1;ratioP1;P1;durP2;ratioP2;P2;SDS_P1;SDS_P2;PMS_P1;PMS_P2;Temp;Humidity;BMP_temperature;BMP_pressure;BME280_temperature;BME280_humidity;BME280_pressure;Samples;Min_cycle;Max_cycle;Signal;HPM_P1;HPM_P2
2021/07/22 00:01:59;;;;;;;58.40;2.90;;;16.60;1.00;;;;;;5072599;28;20526;-71
2021/07/22 00:04:26;;;;;;;58.90;2.80;;;16.50;1.00;;;;;;5058305;28;20591;-71
2021/07/22 00:06:53;;;;;;;58.67;2.87;;;16.50;1.00;;;;;;5053893;28;20487;-70
2021/07/22 00:09:21;;;;;;;58.27;2.87;;;16.50;1.00;;;;;;5054080;28;20451;-70
2021/07/22 00:11:48;;;;;;;59.50;3.40;;;16.50;1.00;;;;;;5053489;28;20552;-71
2021/07/22 00:14:15;;;;;;;58.77;3.20;;;16.50;1.00;;;;;;5054152;28;20560;-70
2021/07/22 00:16:42;;;;;;;58.57;3.20;;;16.40;1.00;;;;;;5054020;28;20446;-70
2021/07/22 00:19:09;;;;;;;60.07;3.63;;;16.40;1.00;;;;;;5054162;28;20531;-70
2021/07/22 00:21:35;;;;;;;58.37;3.10;;;16.30;1.00;;;;;;5053441;28;20552;-71
2021/07/22 00:24:02;;;;;;;58.87;3.00;;;16.30;1.00;;;;;;5053654;28;20449;-71
2021/07/22 00:26:30;;;;;;;58.53;2.90;;;16.30;1.00;;;;;;5053489;28;20481;-71
2021/07/22 00:28:58;;;;;;;59.30;3.93;;;16.30;1.00;;;;;;5053463;28;21007;-71
2021/07/22 00:31:25;;;;;;;58.90;3.47;;;16.30;1.00;;;;;;5053421;28;20453;-71
2021/07/22 00:33:52;;;;;;;58.77;3.23;;;16.30;1.00;;;;;;5051755;28;20448;-71
2021/07/22 00:36:19;;;;;;;59.40;3.37;;;16.30;1.00;;;;;;5053311;28;20456;-71
2021/07/22 00:38:45;;;;;;;58.23;2.60;;;16.20;1.00;;;;;;5053399;28;20454;-71
2021/07/22 00:41:12;;;;;;;60.60;3.10;;;16.20;1.00;;;;;;5053285;28;20454;-70
2021/07/22 00:43:41;;;;;;;58.60;2.60;;;16.20;1.00;;;;;;5053253;28;20540;-70
2021/07/22 00:46:09;;;;;;;59.50;3.93;;;16.10;1.00;;;;;;5053542;28;20507;-71
2021/07/22 00:48:36;;;;;;;58.47;3.00;;;16.20;1.00;;;;;;5053250;28;20885;-71
2021/07/22 00:51:03;;;;;;;59.10;3.20;;;16.10;1.00;;;;;;5053187;28;20536;-71
2021/07/22 00:53:30;;;;;;;58.47;2.70;;;16.10;1.00;;;;;;5052840;28;20540;-71
2021/07/22 00:55:57;;;;;;;58.47;3.17;;;16.00;1.00;;;;;;5053400;28;20551;-71
2021/07/22 00:58:23;;;;;;;58.57;2.80;;;16.00;1.00;;;;;;5053024;28;20541;-71
2021/07/22 01:00:52;;;;;;;58.40;3.00;;;16.00;1.00;;;;;;5053138;28;20547;-71
2021/07/22 01:03:18;;;;;;;59.17;3.20;;;16.00;1.00;;;;;;5052471;28;20548;-71
2021/07/22 01:05:45;;;;;;;58.57;2.80;;;15.90;1.00;;;;;;5068598;28;20476;-71
2021/07/22 01:08:12;;;;;;;58.90;3.20;;;15.90;1.00;;;;;;5053074;28;20483;-71
2021/07/22 01:10:39;;;;;;;58.37;2.70;;;15.90;1.00;;;;;;5053172;28;20452;-71
2021/07/22 01:13:06;;;;;;;59.00;3.20;;;15.80;1.00;;;;;;5052729;28;20832;-71
2021/07/22 01:15:34;;;;;;;58.47;2.80;;;15.70;1.00;;;;;;5052911;28;20881;-71
2021/07/22 01:18:02;;;;;;;58.60;2.93;;;15.70;1.00;;;;;;5052650;28;20446;-71
2021/07/22 01:20:30;;;;;;;58.57;2.90;;;15.60;1.00;;;;;;5052419;28;20488;-71
2021/07/22 01:22:58;;;;;;;59.10;2.90;;;15.60;1.00;;;;;;5052603;28;20861;-71
2021/07/22 01:25:26;;;;;;;58.57;2.67;;;15.60;1.00;;;;;;5052431;28;20476;-71
2021/07/22 01:27:54;;;;;;;58.60;2.87;;;15.60;1.00;;;;;;5052530;28;20487;-71
2021/07/22 01:30:21;;;;;;;58.67;2.80;;;15.60;1.00;;;;;;5052542;28;20531;-71
2021/07/22 01:32:48;;;;;;;58.47;3.00;;;15.60;1.00;;;;;;5052123;28;20536;-71
2021/07/22 01:35:15;;;;;;;59.10;3.10;;;15.60;1.00;;;;;;5058527;28;20468;-71
2021/07/22 01:37:44;;;;;;;60.67;3.30;;;15.60;1.00;;;;;;5072388;28;20448;-71
2021/07/22 01:40:12;;;;;;;58.57;2.90;;;15.50;1.00;;;;;;5072346;28;20476;-71
2021/07/22 01:42:39;;;;;;;58.07;2.80;;;15.50;1.00;;;;;;5072024;28;20538;-71
2021/07/22 01:45:08;;;;;;;58.47;2.70;;;15.40;1.00;;;;;;5071210;28;21024;-71
2021/07/22 01:47:35;;;;;;;58.90;2.87;;;15.40;1.00;;;;;;5071843;28;20479;-71
2021/07/22 01:50:01;;;;;;;58.60;3.10;;;15.40;1.00;;;;;;5072166;28;20542;-71
2021/07/22 01:52:28;;;;;;;58.70;3.27;;;15.30;1.00;;;;;;5071977;28;20537;-71
2021/07/22 01:54:57;;;;;;;58.57;2.80;;;15.30;1.00;;;;;;5072108;28;20478;-71
2021/07/22 01:57:24;;;;;;;58.57;2.73;;;15.30;1.00;;;;;;5072231;28;20486;-71
2021/07/22 01:59:52;;;;;;;58.60;2.73;;;15.30;1.00;;;;;;5071927;28;20497;-71
2021/07/22 02:02:19;;;;;;;58.17;2.90;;;15.20;1.00;;;;;;5071351;28;20455;-71
2021/07/22 02:04:46;;;;;;;58.30;2.70;;;15.20;1.00;;;;;;5071888;28;20842;-71
2021/07/22 02:07:13;;;;;;;58.57;3.13;;;15.20;1.00;;;;;;5055486;28;21182;-71
2021/07/22 02:09:40;;;;;;;58.37;2.60;;;15.10;1.00;;;;;;5069220;28;20535;-71
2021/07/22 02:12:09;;;;;;;58.40;2.53;;;15.10;1.00;;;;;;5071641;28;20526;-71
2021/07/22 02:14:36;;;;;;;58.10;2.73;;;15.10;1.00;;;;;;5071796;28;21038;-71
2021/07/22 02:17:03;;;;;;;58.40;2.90;;;15.00;1.00;;;;;;5072000;28;20534;-71
2021/07/22 02:19:30;;;;;;;58.50;3.20;;;15.10;1.00;;;;;;5071919;28;20442;-71
2021/07/22 02:21:57;;;;;;;59.27;3.67;;;15.00;1.00;;;;;;5071618;28;20541;-71
2021/07/22 02:24:23;;;;;;;58.27;2.97;;;15.00;1.00;;;;;;5071567;28;20980;-71
2021/07/22 02:26:50;;;;;;;58.27;3.13;;;15.00;1.00;;;;;;5071513;28;20566;-71
2021/07/22 02:29:18;;;;;;;58.00;2.73;;;15.00;1.00;;;;;;5071558;28;20897;-71
2021/07/22 02:31:46;;;;;;;58.27;3.10;;;14.90;1.00;;;;;;5071545;28;20453;-71
2021/07/22 02:34:12;;;;;;;58.00;2.90;;;14.80;1.00;;;;;;5071884;28;20453;-71
2021/07/22 02:36:39;;;;;;;58.50;2.80;;;14.80;1.00;;;;;;5070956;28;20530;-71
2021/07/22 02:39:06;;;;;;;58.57;2.90;;;14.80;1.00;;;;;;5070902;28;20558;-71
2021/07/22 02:41:33;;;;;;;58.37;2.80;;;14.80;1.00;;;;;;5071281;28;20533;-71
2021/07/22 02:44:00;;;;;;;58.80;3.33;;;14.80;1.00;;;;;;5071293;28;20452;-71
2021/07/22 02:46:28;;;;;;;58.57;2.70;;;14.80;1.00;;;;;;5071625;28;20541;-70
2021/07/22 02:49:00;;;;;;;58.37;2.90;;;14.80;1.00;;;;;;5071566;28;20864;-70
2021/07/22 02:51:26;;;;;;;58.23;2.93;;;14.80;1.00;;;;;;5071227;28;20494;-70
2021/07/22 02:53:53;;;;;;;59.20;3.10;;;14.80;1.00;;;;;;5071350;28;20459;-71
2021/07/22 02:56:20;;;;;;;58.10;2.83;;;14.80;1.00;;;;;;5071594;28;20755;-71
2021/07/22 02:58:47;;;;;;;58.37;3.00;;;14.80;1.00;;;;;;5075614;28;20443;-71
2021/07/22 03:01:14;;;;;;;58.17;2.77;;;14.70;1.00;;;;;;5075351;28;20455;-71
2021/07/22 03:03:42;;;;;;;58.60;2.80;;;14.70;1.00;;;;;;5075266;28;21034;-71
2021/07/22 03:06:13;;;;;;;59.60;3.30;;;14.70;1.00;;;;;;5075195;28;20463;-71
2021/07/22 03:08:40;;;;;;;58.47;2.63;;;14.70;1.00;;;;;;5074252;28;21066;-71
2021/07/22 03:11:10;;;;;;;59.50;3.60;;;14.70;1.00;;;;;;5074235;28;20546;-70
2021/07/22 03:13:36;;;;;;;58.63;3.00;;;14.70;1.00;;;;;;5074817;28;21029;-71
2021/07/22 03:16:04;;;;;;;58.60;2.70;;;14.70;1.00;;;;;;5075068;28;20495;-70
2021/07/22 03:18:30;;;;;;;60.07;4.10;;;14.70;1.00;;;;;;5074976;28;20443;-70
2021/07/22 03:21:01;;;;;;;59.10;3.77;;;14.70;1.00;;;;;;5074885;28;20542;-70
2021/07/22 03:23:28;;;;;;;58.43;2.83;;;14.60;1.00;;;;;;5074667;28;20487;-70
2021/07/22 03:25:54;;;;;;;59.10;3.30;;;14.50;1.00;;;;;;5074968;28;20469;-70
2021/07/22 03:28:21;;;;;;;58.50;3.03;;;14.50;1.00;;;;;;5074706;28;20489;-71
2021/07/22 03:30:48;;;;;;;58.53;2.77;;;14.50;1.00;;;;;;5074856;28;20541;-71
2021/07/22 03:33:15;;;;;;;59.30;3.73;;;14.50;1.00;;;;;;5074609;28;20977;-71
2021/07/22 03:35:42;;;;;;;58.63;3.00;;;14.50;1.00;;;;;;5074727;28;20502;-71
2021/07/22 03:38:10;;;;;;;58.87;3.10;;;14.60;1.00;;;;;;5074513;28;20447;-71
2021/07/22 03:40:37;;;;;;;59.40;4.03;;;14.60;1.00;;;;;;5074599;28;20542;-71
2021/07/22 03:43:04;;;;;;;58.67;3.00;;;14.60;1.00;;;;;;5074452;28;20487;-71
2021/07/22 03:45:31;;;;;;;58.73;3.07;;;14.70;1.00;;;;;;5074506;28;20819;-71
2021/07/22 03:48:00;;;;;;;58.07;3.07;;;14.70;1.00;;;;;;5074473;28;20570;-71
2021/07/22 03:50:27;;;;;;;59.07;3.47;;;14.70;1.00;;;;;;5074305;28;20826;-71
2021/07/22 03:52:56;;;;;;;58.07;2.70;;;14.70;1.00;;;;;;5074093;28;20943;-71
2021/07/22 03:55:25;;;;;;;59.47;4.20;;;14.80;1.00;;;;;;5074705;28;20486;-71
2021/07/22 03:57:52;;;;;;;60.50;4.40;;;14.80;1.00;;;;;;5074375;28;20446;-71
2021/07/22 04:00:19;;;;;;;59.30;4.13;;;14.80;1.00;;;;;;5074068;28;20530;-71
2021/07/22 04:02:46;;;;;;;58.83;3.10;;;14.80;1.00;;;;;;5073791;28;20459;-71
2021/07/22 04:05:13;;;;;;;58.37;2.80;;;14.70;1.00;;;;;;5074027;28;20575;-71
2021/07/22 04:07:43;;;;;;;58.53;2.80;;;14.70;1.00;;;;;;5073547;28;20487;-71
2021/07/22 04:10:11;;;;;;;58.90;3.30;;;14.80;1.00;;;;;;5073791;28;20827;-71
2021/07/22 04:12:39;;;;;;;59.97;3.90;;;14.80;1.00;;;;;;5074187;28;20451;-71
2021/07/22 04:15:07;;;;;;;58.60;2.97;;;14.80;1.00;;;;;;5073933;28;20481;-71
2021/07/22 04:17:34;;;;;;;58.80;2.80;;;14.80;1.00;;;;;;5073764;28;20443;-71
2021/07/22 04:20:01;;;;;;;58.87;3.80;;;14.80;1.00;;;;;;5074110;28;20527;-71
2021/07/22 04:22:28;;;;;;;58.70;3.13;;;14.80;1.00;;;;;;5073669;28;20482;-71
2021/07/22 04:24:54;;;;;;;59.20;3.47;;;14.90;1.00;;;;;;5073802;28;20471;-72
2021/07/22 04:27:27;;;;;;;58.33;2.73;;;14.90;1.00;;;;;;5073798;28;20574;-72
2021/07/22 04:29:57;;;;;;;58.93;3.03;;;14.80;1.00;;;;;;5073952;28;20450;-72
2021/07/22 04:32:24;;;;;;;58.17;3.13;;;14.80;1.00;;;;;;5073641;28;20477;-72
2021/07/22 04:34:51;;;;;;;58.67;2.83;;;14.80;1.00;;;;;;5073603;28;20470;-72
2021/07/22 04:37:18;;;;;;;58.60;3.40;;;14.80;1.00;;;;;;5073710;28;20531;-72
2021/07/22 04:39:45;;;;;;;58.17;2.60;;;14.80;1.00;;;;;;5073450;28;20546;-72
2021/07/22 04:42:12;;;;;;;58.43;2.80;;;14.80;1.00;;;;;;5073288;28;20443;-71
2021/07/22 04:44:39;;;;;;;58.57;2.77;;;14.80;1.00;;;;;;5073468;28;20498;-71
2021/07/22 04:47:07;;;;;;;58.70;3.00;;;14.80;1.00;;;;;;5073498;28;20479;-71
2021/07/22 04:49:34;;;;;;;58.77;3.00;;;14.80;1.00;;;;;;5073370;28;20877;-71
2021/07/22 04:52:01;;;;;;;58.77;2.80;;;14.90;1.00;;;;;;5072939;28;20451;-71
2021/07/22 04:54:28;;;;;;;58.87;3.87;;;14.90;1.00;;;;;;5072917;28;21005;-71
2021/07/22 04:56:55;;;;;;;58.30;2.90;;;14.90;1.00;;;;;;5073370;28;20827;-71
2021/07/22 04:59:22;;;;;;;58.33;3.30;;;14.90;1.00;;;;;;5072968;28;20447;-71
2021/07/22 05:01:49;;;;;;;58.50;3.37;;;15.00;1.00;;;;;;5072515;28;21034;-71
2021/07/22 05:04:18;;;;;;;58.67;3.37;;;15.00;1.00;;;;;;5072916;28;20566;-71
2021/07/22 05:06:45;;;;;;;58.37;2.80;;;15.00;1.00;;;;;;5073038;28;20501;-71
2021/07/22 05:09:12;;;;;;;59.00;3.40;;;15.10;1.00;;;;;;5072851;28;20487;-71
2021/07/22 05:11:39;;;;;;;59.00;4.60;;;15.10;1.00;;;;;;5072582;28;20483;-71
2021/07/22 05:14:06;;;;;;;60.27;4.13;;;15.10;1.00;;;;;;5072941;28;20889;-71
2021/07/22 05:16:34;;;;;;;59.00;3.80;;;15.10;1.00;;;;;;5072872;28;20836;-71
2021/07/22 05:19:01;;;;;;;58.50;3.00;;;15.10;1.00;;;;;;5072599;28;20894;-71
2021/07/22 05:21:29;;;;;;;59.00;3.47;;;15.10;1.00;;;;;;5072233;28;20491;-71
2021/07/22 05:23:56;;;;;;;58.47;2.90;;;15.10;1.00;;;;;;5072591;28;20490;-71
2021/07/22 05:26:22;;;;;;;58.47;2.70;;;15.10;1.00;;;;;;5072533;28;20455;-71
2021/07/22 05:28:49;;;;;;;59.00;3.00;;;15.20;1.00;;;;;;5072366;28;21025;-71
2021/07/22 05:31:16;;;;;;;58.27;2.90;;;15.20;1.00;;;;;;5072369;28;20534;-71
2021/07/22 05:33:43;;;;;;;58.70;3.10;;;15.20;1.00;;;;;;5072262;28;20487;-72
2021/07/22 05:36:10;;;;;;;58.80;3.63;;;15.20;1.00;;;;;;5072456;28;20520;-72
2021/07/22 05:38:39;;;;;;;58.43;2.80;;;15.20;1.00;;;;;;5072254;28;20444;-72
2021/07/22 05:41:07;;;;;;;58.87;3.10;;;15.20;1.00;;;;;;5072190;28;20447;-72
2021/07/22 05:43:35;;;;;;;59.47;3.63;;;15.20;1.00;;;;;;5072383;28;20538;-72
2021/07/22 05:46:01;;;;;;;58.20;2.90;;;15.20;1.00;;;;;;5072281;28;20866;-72
2021/07/22 05:48:28;;;;;;;60.90;4.50;;;15.30;1.00;;;;;;5072066;28;20566;-72
2021/07/22 05:50:59;;;;;;;57.90;2.77;;;15.30;1.00;;;;;;5072162;28;20447;-72
2021/07/22 05:53:26;;;;;;;58.70;2.80;;;15.30;1.00;;;;;;5071866;28;20478;-72
2021/07/22 05:55:57;;;;;;;58.57;3.20;;;15.40;1.00;;;;;;5072211;28;20499;-72
2021/07/22 05:58:24;;;;;;;59.47;3.73;;;15.50;1.00;;;;;;5072081;28;20471;-72
2021/07/22 06:00:50;;;;;;;58.63;3.13;;;15.50;1.00;;;;;;5072077;28;20529;-71
2021/07/22 06:03:17;;;;;;;58.70;3.40;;;15.60;1.00;;;;;;5071672;28;21039;-71
2021/07/22 06:05:44;;;;;;;58.53;2.60;;;15.70;1.00;;;;;;5072059;28;20498;-71
2021/07/22 06:08:11;;;;;;;58.40;3.30;;;15.70;1.00;;;;;;5072053;28;20522;-71
2021/07/22 06:10:38;;;;;;;58.50;3.03;;;15.80;1.00;;;;;;5057078;28;20481;-71
2021/07/22 06:13:06;;;;;;;58.80;3.37;;;15.80;1.00;;;;;;5051722;28;20459;-71
2021/07/22 06:15:33;;;;;;;58.40;3.33;;;15.90;1.00;;;;;;5058031;28;20558;-72
2021/07/22 06:18:00;;;;;;;58.57;3.27;;;16.00;1.00;;;;;;5061652;28;20449;-71
2021/07/22 06:20:27;;;;;;;59.47;3.77;;;16.00;1.00;;;;;;5051533;28;20456;-72
2021/07/22 06:22:54;;;;;;;58.43;3.30;;;16.10;1.00;;;;;;5051727;28;20452;-72
2021/07/22 06:25:21;;;;;;;59.87;3.67;;;16.10;1.00;;;;;;5051566;28;20475;-72
2021/07/22 06:27:47;;;;;;;58.67;3.60;;;16.20;1.00;;;;;;5051541;28;20563;-72
2021/07/22 06:30:16;;;;;;;58.77;3.50;;;16.30;1.00;;;;;;5051620;28;20558;-71
2021/07/22 06:32:43;;;;;;;60.10;3.00;;;16.40;1.00;;;;;;5050852;28;20450;-72
2021/07/22 06:35:10;;;;;;;59.87;3.30;;;16.50;1.00;;;;;;5051298;28;20469;-72
2021/07/22 06:37:44;;;;;;;58.17;3.20;;;16.60;1.00;;;;;;5051691;28;20445;-71
2021/07/22 06:40:12;;;;;;;58.63;3.30;;;16.80;1.00;;;;;;5051444;28;21149;-71
2021/07/22 06:42:39;;;;;;;58.07;3.20;;;16.80;1.00;;;;;;5051254;28;20454;-71
2021/07/22 06:45:06;;;;;;;58.27;2.70;;;17.00;1.00;;;;;;5051156;28;20528;-71
2021/07/22 06:47:37;;;;;;;58.40;2.60;;;17.10;1.00;;;;;;5064867;28;20448;-72
2021/07/22 06:50:06;;;;;;;58.40;3.10;;;17.20;1.00;;;;;;5053269;28;20480;-72
2021/07/22 06:52:32;;;;;;;58.70;3.23;;;17.40;1.00;;;;;;5050133;28;20536;-72
2021/07/22 06:54:59;;;;;;;58.47;2.80;;;17.40;1.00;;;;;;5051258;28;20485;-72
2021/07/22 06:57:26;;;;;;;58.83;3.20;;;17.50;1.00;;;;;;5051472;28;20899;-72
2021/07/22 06:59:53;;;;;;;57.97;3.00;;;17.60;1.00;;;;;;5051187;28;20476;-71
2021/07/22 07:02:20;;;;;;;58.17;2.73;;;17.70;1.00;;;;;;5050736;28;20487;-71
2021/07/22 07:04:48;;;;;;;58.37;2.53;;;17.90;1.00;;;;;;5051283;28;20502;-72
2021/07/22 07:07:15;;;;;;;58.37;2.70;;;18.10;1.00;;;;;;5051278;28;20541;-72
2021/07/22 07:09:42;;;;;;;59.57;3.73;;;18.30;1.00;;;;;;5051343;28;20487;-72
2021/07/22 07:12:10;;;;;;;58.80;3.10;;;18.50;1.00;;;;;;5051123;28;20450;-72
2021/07/22 07:14:37;;;;;;;58.27;3.47;;;18.60;1.00;;;;;;5051000;28;20554;-72
2021/07/22 07:17:04;;;;;;;58.20;2.80;;;18.70;1.00;;;;;;5051756;28;20455;-72
2021/07/22 07:19:31;;;;;;;58.17;2.97;;;18.70;1.00;;;;;;5066598;28;20526;-72
2021/07/22 07:21:59;;;;;;;58.27;3.27;;;18.80;1.00;;;;;;5051022;28;20888;-71
2021/07/22 07:24:26;;;;;;;59.50;3.20;;;18.90;1.00;;;;;;5051091;28;20475;-71
2021/07/22 07:26:53;;;;;;;58.37;3.60;;;18.90;1.00;;;;;;5051118;28;21030;-71
2021/07/22 07:29:20;;;;;;;58.27;2.80;;;19.00;1.00;;;;;;5050840;28;20570;-71
2021/07/22 07:31:47;;;;;;;59.47;3.63;;;19.10;1.00;;;;;;5051043;28;20543;-71
2021/07/22 07:34:13;;;;;;;58.50;3.20;;;19.10;1.00;;;;;;5051204;28;20904;-72
2021/07/22 07:36:44;;;;;;;60.10;3.30;;;19.20;1.00;;;;;;5051244;28;20975;-72
2021/07/22 07:39:13;;;;;;;59.00;3.10;;;19.20;1.00;;;;;;5051110;28;20448;-72
2021/07/22 07:41:39;;;;;;;58.43;3.10;;;19.30;1.00;;;;;;5050656;28;20458;-72
2021/07/22 07:44:06;;;;;;;58.20;2.70;;;19.30;1.00;;;;;;5052777;28;20530;-72
2021/07/22 07:46:33;;;;;;;58.47;2.93;;;19.40;1.00;;;;;;5054521;28;20462;-72
2021/07/22 07:49:00;;;;;;;58.10;2.70;;;19.50;1.00;;;;;;5053151;28;20566;-72
2021/07/22 07:51:27;;;;;;;58.50;3.57;;;19.60;1.00;;;;;;5066771;28;20531;-72
2021/07/22 07:53:54;;;;;;;58.27;2.53;;;19.70;1.00;;;;;;5074367;28;20497;-72
2021/07/22 07:56:22;;;;;;;58.10;2.80;;;19.80;1.00;;;;;;5074327;28;20478;-72
2021/07/22 07:58:49;;;;;;;58.50;3.37;;;19.90;1.00;;;;;;5074522;28;20443;-72
2021/07/22 08:01:16;;;;;;;58.70;3.40;;;20.00;1.00;;;;;;5074298;28;20943;-72
2021/07/22 08:03:43;;;;;;;58.07;2.80;;;20.10;1.00;;;;;;5073932;28;20548;-73
2021/07/22 08:06:10;;;;;;;58.80;2.60;;;20.20;1.00;;;;;;5074158;28;20473;-73
2021/07/22 08:08:37;;;;;;;57.83;2.20;;;20.30;1.00;;;;;;5074077;28;20854;-73
2021/07/22 08:11:06;;;;;;;58.67;3.40;;;20.50;1.00;;;;;;5073911;28;20848;-73
2021/07/22 08:13:34;;;;;;;57.77;2.80;;;20.60;1.00;;;;;;5074053;28;20447;-73
2021/07/22 08:16:01;;;;;;;59.47;3.53;;;20.70;1.00;;;;;;5074160;28;20479;-73
2021/07/22 08:18:27;;;;;;;58.17;2.63;;;20.80;1.00;;;;;;5073837;28;20868;-73
2021/07/22 08:20:54;;;;;;;58.37;2.80;;;20.90;1.00;;;;;;5073653;28;20475;-73
2021/07/22 08:23:21;;;;;;;59.37;4.97;;;21.10;1.00;;;;;;5073581;28;20555;-73
2021/07/22 08:25:48;;;;;;;59.13;3.57;;;21.20;1.00;;;;;;5073952;28;20475;-72
2021/07/22 08:28:15;;;;;;;58.70;3.20;;;21.30;1.00;;;;;;5073808;28;20453;-75
2021/07/22 08:30:43;;;;;;;58.07;3.00;;;21.40;1.00;;;;;;5073627;28;20967;-73
2021/07/22 08:33:10;;;;;;;58.70;3.13;;;21.50;1.00;;;;;;5073742;28;20537;-73
2021/07/22 08:35:37;;;;;;;58.57;3.13;;;21.60;1.00;;;;;;5073507;28;20565;-72
2021/07/22 08:38:04;;;;;;;58.47;3.07;;;21.70;1.00;;;;;;5073358;28;20535;-72
2021/07/22 08:40:31;;;;;;;58.70;2.80;;;21.90;1.00;;;;;;5073647;28;20813;-72
2021/07/22 08:43:03;;;;;;;59.43;3.13;;;22.00;1.00;;;;;;5073204;28;20451;-72
2021/07/22 08:45:30;;;;;;;58.80;3.10;;;22.10;1.00;;;;;;5073364;28;20474;-72
2021/07/22 08:47:59;;;;;;;58.37;3.03;;;22.30;1.00;;;;;;5073371;28;20978;-72
2021/07/22 08:50:27;;;;;;;58.30;2.60;;;22.40;1.00;;;;;;5073073;28;20486;-72
2021/07/22 08:52:54;;;;;;;59.47;3.27;;;22.50;1.00;;;;;;5073089;28;20447;-72
2021/07/22 08:55:21;;;;;;;58.60;3.07;;;22.70;1.00;;;;;;5072883;28;20851;-72
2021/07/22 08:57:49;;;;;;;58.10;2.97;;;22.80;1.00;;;;;;5073328;28;20494;-72
2021/07/22 09:00:17;;;;;;;58.77;3.13;;;23.00;1.00;;;;;;5073193;28;20924;-72
2021/07/22 09:02:44;;;;;;;59.33;3.27;;;23.20;1.00;;;;;;5072801;28;20555;-72
2021/07/22 09:05:14;;;;;;;58.57;3.00;;;23.30;1.00;;;;;;5073438;28;20557;-72
2021/07/22 09:07:41;;;;;;;59.30;3.13;;;23.50;1.00;;;;;;5072929;28;20453;-72
2021/07/22 09:10:16;;;;;;;58.90;2.97;;;23.60;1.00;;;;;;5073030;28;20936;-72
2021/07/22 09:12:45;;;;;;;58.90;3.27;;;23.70;1.00;;;;;;5072621;28;20468;-72
2021/07/22 09:15:14;;;;;;;59.70;3.83;;;23.90;1.00;;;;;;5072829;28;20914;-72
2021/07/22 09:17:41;;;;;;;59.03;2.70;;;24.10;1.00;;;;;;5072688;28;21023;-73
2021/07/22 09:20:13;;;;;;;58.60;3.07;;;24.30;1.00;;;;;;5072692;28;20447;-73
2021/07/22 09:22:42;;;;;;;58.73;2.70;;;24.30;1.00;;;;;;5072548;28;20453;-73
2021/07/22 09:25:10;;;;;;;58.30;2.70;;;24.50;1.00;;;;;;5072712;28;20464;-73
2021/07/22 09:27:40;;;;;;;59.60;3.07;;;24.70;1.00;;;;;;5072694;28;20451;-73
2021/07/22 09:30:10;;;;;;;58.03;2.57;;;24.90;1.00;;;;;;5072412;28;20478;-73
2021/07/22 09:32:39;;;;;;;60.00;3.10;;;24.90;1.00;;;;;;5072190;28;20954;-73
2021/07/22 09:35:12;;;;;;;58.27;2.60;;;25.10;1.00;;;;;;5072499;28;20470;-73
2021/07/22 09:37:44;;;;;;;59.10;3.90;;;25.40;1.00;;;;;;5072647;28;20986;-73
2021/07/22 09:40:12;;;;;;;58.30;2.70;;;25.50;1.00;;;;;;5072758;28;20950;-73
2021/07/22 09:42:43;;;;;;;58.10;2.93;;;25.70;1.00;;;;;;5072160;28;20700;-73
2021/07/22 09:45:18;;;;;;;59.33;3.70;;;25.90;1.00;;;;;;5072550;28;20492;-73
2021/07/22 09:47:46;;;;;;;58.70;3.10;;;26.00;1.00;;;;;;5072362;28;20444;-73
2021/07/22 09:50:16;;;;;;;59.77;4.10;;;26.10;1.00;;;;;;5072165;28;20488;-73
2021/07/22 09:52:44;;;;;;;58.50;2.67;;;26.30;1.00;;;;;;5072549;28;20453;-73
2021/07/22 09:55:32;;;;;;;58.27;3.00;;;26.50;1.00;;;;;;5072520;28;20463;-73
2021/07/22 09:58:01;;;;;;;58.27;2.83;;;26.60;1.00;;;;;;5067331;28;20457;-73
2021/07/22 10:00:30;;;;;;;57.87;2.67;;;26.80;1.00;;;;;;5072546;28;21032;-73
2021/07/22 10:03:00;;;;;;;58.27;2.63;;;27.00;1.00;;;;;;5071909;28;20891;-73
2021/07/22 10:05:29;;;;;;;58.87;3.60;;;27.20;1.00;;;;;;5071708;28;20551;-73
2021/07/22 10:07:57;;;;;;;58.50;2.70;;;27.40;1.00;;;;;;5071688;28;20450;-73
2021/07/22 10:10:27;;;;;;;57.80;2.40;;;27.60;1.00;;;;;;5071776;28;20488;-73
2021/07/22 10:12:56;;;;;;;58.57;2.50;;;27.80;1.00;;;;;;5071734;28;20809;-73
2021/07/22 10:15:26;;;;;;;58.60;2.50;;;28.00;1.00;;;;;;5071808;28;20499;-72
2021/07/22 10:17:55;;;;;;;58.07;2.30;;;28.20;1.00;;;;;;5072342;28;20458;-69
2021/07/22 10:20:23;;;;;;;57.93;2.80;;;28.40;1.00;;;;;;5072176;28;20530;-70
2021/07/22 10:22:52;;;;;;;58.40;2.70;;;28.60;1.00;;;;;;5071792;28;20893;-70
2021/07/22 10:25:18;;;;;;;58.20;2.70;;;29.00;1.00;;;;;;5071890;28;20557;-70
2021/07/22 10:27:45;;;;;;;57.77;2.57;;;29.80;1.00;;;;;;5071774;28;21020;-70
2021/07/22 10:30:14;;;;;;;57.57;2.40;;;31.00;1.00;;;;;;5072163;28;20473;-70
2021/07/22 10:32:48;;;;;;;58.40;2.83;;;32.20;1.00;;;;;;5071311;28;20482;-70
2021/07/22 10:35:16;;;;;;;59.47;4.77;;;33.20;1.00;;;;;;5071561;28;20558;-70
2021/07/22 10:38:08;;;;;;;59.03;2.83;;;34.00;1.00;;;;;;5071932;28;20454;-70
2021/07/22 10:40:54;;;;;;;57.40;2.20;;;35.00;1.00;;;;;;5071628;28;20815;-70
2021/07/22 10:43:43;;;;;;;58.60;2.80;;;35.70;1.00;;;;;;5071608;28;20455;-70
2021/07/22 10:46:12;;;;;;;57.43;2.60;;;36.00;1.00;;;;;;5071534;28;20501;-70
2021/07/22 10:48:40;;;;;;;57.40;2.70;;;36.20;1.00;;;;;;5071564;28;20443;-70
2021/07/22 10:51:08;;;;;;;57.37;2.37;;;36.70;1.00;;;;;;5071325;28;20578;-70
2021/07/22 10:53:44;;;;;;;58.87;2.77;;;37.10;1.00;;;;;;5071232;28;20452;-70
2021/07/22 10:56:12;;;;;;;57.97;2.63;;;37.30;1.00;;;;;;5071505;28;21058;-70
2021/07/22 10:58:53;;;;;;;57.47;2.60;;;37.40;1.00;;;;;;5071347;28;20534;-70
2021/07/22 11:01:53;;;;;;;56.87;2.03;;;37.30;1.00;;;;;;5071497;28;20948;-71
2021/07/22 11:04:47;;;;;;;57.27;2.20;;;37.60;1.00;;;;;;5009253;28;20485;-70
2021/07/22 11:07:23;;;;;;;58.10;3.10;;;38.10;1.00;;;;;;5069711;28;20983;-70
2021/07/22 11:09:55;;;;;;;57.40;2.60;;;38.30;1.00;;;;;;5071695;28;20478;-70
2021/07/22 11:12:46;;;;;;;57.93;2.90;;;38.60;1.00;;;;;;5071181;28;20863;-70
2021/07/22 11:15:18;;;;;;;57.37;2.50;;;38.90;1.00;;;;;;5071161;28;20460;-70
2021/07/22 11:17:47;;;;;;;59.87;3.33;;;39.10;1.00;;;;;;5072425;28;20554;-70
2021/07/22 11:20:45;;;;;;;58.80;4.40;;;39.30;1.00;;;;;;5075136;28;20496;-70
2021/07/22 11:23:17;;;;;;;56.87;2.73;;;39.50;1.00;;;;;;5074739;28;20530;-70
2021/07/22 11:25:47;;;;;;;57.97;3.00;;;39.50;1.00;;;;;;5075317;28;20458;-70
2021/07/22 11:28:24;;;;;;;57.23;2.43;;;39.50;1.00;;;;;;5073926;28;20435;-70
2021/07/22 11:31:01;;;;;;;57.30;2.40;;;39.70;1.00;;;;;;5074915;28;20478;-71
2021/07/22 11:33:31;;;;;;;57.03;2.17;;;39.90;1.00;;;;;;5074842;28;20475;-71
2021/07/22 11:35:58;;;;;;;57.30;2.80;;;40.20;1.00;;;;;;5074409;28;20998;-71
2021/07/22 11:38:26;;;;;;;57.77;2.50;;;40.60;1.00;;;;;;5074765;28;20533;-72
2021/07/22 11:40:55;;;;;;;56.93;2.10;;;40.90;1.00;;;;;;5073506;28;20535;-72
2021/07/22 11:43:36;;;;;;;57.20;2.60;;;41.10;1.00;;;;;;5074360;28;20527;-72
2021/07/22 11:46:03;;;;;;;57.17;3.17;;;41.30;1.00;;;;;;5074557;28;20983;-72
2021/07/22 11:48:30;;;;;;;56.50;2.80;;;41.50;1.00;;;;;;5074902;28;20457;-72
2021/07/22 11:51:08;;;;;;;57.00;2.37;;;41.70;1.00;;;;;;5074305;28;20581;-71
2021/07/22 11:53:36;;;;;;;56.50;2.37;;;41.70;1.00;;;;;;5074397;28;20443;-71
2021/07/22 11:56:13;;;;;;;56.30;2.80;;;41.80;1.00;;;;;;5074256;28;20481;-71
2021/07/22 11:58:41;;;;;;;56.07;2.40;;;41.90;1.00;;;;;;5074501;28;20451;-71
2021/07/22 12:01:09;;;;;;;56.87;2.90;;;41.90;1.00;;;;;;5074302;28;20522;-71
2021/07/22 12:03:36;;;;;;;56.70;2.50;;;41.90;1.00;;;;;;5074202;28;20462;-71
2021/07/22 12:06:03;;;;;;;56.37;2.60;;;42.00;1.00;;;;;;5074400;28;20499;-71
2021/07/22 12:08:29;;;;;;;56.30;2.13;;;42.00;1.00;;;;;;5074048;28;20454;-71
2021/07/22 12:11:03;;;;;;;57.30;2.70;;;42.00;1.00;;;;;;5074247;28;20485;-71
2021/07/22 12:13:53;;;;;;;56.07;2.13;;;41.80;1.00;;;;;;5074054;28;20422;-71
2021/07/22 12:16:25;;;;;;;56.90;2.60;;;41.90;1.00;;;;;;5073941;28;20469;-71
2021/07/22 12:18:53;;;;;;;55.97;2.67;;;42.20;1.00;;;;;;5073741;28;20935;-71
2021/07/22 12:21:22;;;;;;;56.27;2.67;;;42.20;1.00;;;;;;5073455;28;20475;-71
2021/07/22 12:23:49;;;;;;;56.80;2.40;;;42.20;1.00;;;;;;5073899;28;20479;-71
2021/07/22 12:26:18;;;;;;;56.13;2.30;;;42.40;1.00;;;;;;5073972;28;20474;-71
2021/07/22 12:28:45;;;;;;;56.50;2.77;;;42.50;1.00;;;;;;5073249;28;20555;-71
2021/07/22 12:31:21;;;;;;;57.10;2.90;;;42.30;1.00;;;;;;5073241;28;20446;-71
2021/07/22 12:33:58;;;;;;;57.40;3.00;;;42.20;1.00;;;;;;5073807;28;20636;-71
2021/07/22 12:36:26;;;;;;;56.70;2.70;;;42.20;1.00;;;;;;5073721;28;20533;-71
2021/07/22 12:39:13;;;;;;;56.77;2.83;;;42.20;1.00;;;;;;5073575;28;20526;-71
2021/07/22 12:41:40;;;;;;;57.60;4.40;;;42.10;1.00;;;;;;5073127;28;20919;-71
2021/07/22 12:44:07;;;;;;;57.30;2.80;;;42.00;1.00;;;;;;5073412;28;20954;-71
2021/07/22 12:46:36;;;;;;;57.37;2.60;;;42.10;1.00;;;;;;5073529;28;20422;-71
2021/07/22 12:49:03;;;;;;;55.97;2.30;;;42.20;1.00;;;;;;5073493;28;20449;-71
2021/07/22 12:51:30;;;;;;;57.60;2.87;;;42.10;1.00;;;;;;5073091;28;20444;-72
2021/07/22 12:53:57;;;;;;;57.77;3.20;;;41.70;1.00;;;;;;5073154;28;20448;-71
2021/07/22 12:56:25;;;;;;;57.30;2.90;;;41.70;1.00;;;;;;5073191;28;20667;-71